Pleak, Texas
Current Conditions -  °F | °C
As of 3:53 AM on Tuesday 21 Oct 2014 (Local Time) from KSGR Reporting Station
Clear Clear  
Wind Chill: 63°   Ceiling: Unl
Heat Index: 63°   Visibility: 10mi
Dew Point: 57°   Wind: 5mph
Humidity: 81%   Direction: 30°NNE
Pressure: 30"   Gusts: NA
Location:  29.4892°N, 95.6914°W
Report Text: KSGR 210853Z AUTO 03004KT 10SM CLR 17/14 A3000 RMK AO2 SLP158 T01720139 57004
Loading
Personal Weather Stations






























Interactive Weather Map
Tropical Storm Tracking
New forecast layout! Learn more

10-Day Weather Forecast

Advertisements
Track Severe Weather on mobile